sensor_id;sensor_type;location;lat;lon;timestamp;pressure;altitude;pressure_sealevel;temperature
69435;BMP180;56625;54.322;18.582;2023-07-13T00:01:54;100412.40;;;16.10
69435;BMP180;56625;54.322;18.582;2023-07-13T00:04:24;100412.00;;;16.10
69435;BMP180;56625;54.322;18.582;2023-07-13T00:06:52;100417.40;;;16.00
69435;BMP180;56625;54.322;18.582;2023-07-13T00:09:21;100421.00;;;16.02
69435;BMP180;56625;54.322;18.582;2023-07-13T00:11:56;100422.20;;;16.00
69435;BMP180;56625;54.322;18.582;2023-07-13T00:14:26;100426.00;;;15.98
69435;BMP180;56625;54.322;18.582;2023-07-13T00:16:54;100429.60;;;16.00
69435;BMP180;56625;54.322;18.582;2023-07-13T00:19:21;100425.40;;;16.00
69435;BMP180;56625;54.322;18.582;2023-07-13T00:21:48;100428.00;;;16.00
69435;BMP180;56625;54.322;18.582;2023-07-13T00:24:17;100422.00;;;16.00
69435;BMP180;56625;54.322;18.582;2023-07-13T00:26:49;100412.60;;;15.90
69435;BMP180;56625;54.322;18.582;2023-07-13T00:29:16;100416.00;;;15.90
69435;BMP180;56625;54.322;18.582;2023-07-13T00:31:43;100402.20;;;15.80
69435;BMP180;56625;54.322;18.582;2023-07-13T00:34:10;100395.80;;;15.80
69435;BMP180;56625;54.322;18.582;2023-07-13T00:36:36;100383.00;;;15.78
69435;BMP180;56625;54.322;18.582;2023-07-13T00:39:03;100382.80;;;15.80
69435;BMP180;56625;54.322;18.582;2023-07-13T00:41:31;100389.20;;;15.70
69435;BMP180;56625;54.322;18.582;2023-07-13T00:43:58;100390.60;;;15.60
69435;BMP180;56625;54.322;18.582;2023-07-13T00:46:31;100386.00;;;15.60
69435;BMP180;56625;54.322;18.582;2023-07-13T00:49:06;100387.00;;;15.56
69435;BMP180;56625;54.322;18.582;2023-07-13T00:51:43;100380.40;;;15.50
69435;BMP180;56625;54.322;18.582;2023-07-13T00:54:15;100390.80;;;15.50
69435;BMP180;56625;54.322;18.582;2023-07-13T00:56:45;100390.40;;;15.40
69435;BMP180;56625;54.322;18.582;2023-07-13T00:59:16;100404.20;;;15.42
69435;BMP180;56625;54.322;18.582;2023-07-13T01:01:43;100408.40;;;15.40
69435;BMP180;56625;54.322;18.582;2023-07-13T01:04:10;100420.60;;;15.30
69435;BMP180;56625;54.322;18.582;2023-07-13T01:06:39;100417.60;;;15.30
69435;BMP180;56625;54.322;18.582;2023-07-13T01:09:07;100422.40;;;15.30
69435;BMP180;56625;54.322;18.582;2023-07-13T01:11:34;100430.00;;;15.30
69435;BMP180;56625;54.322;18.582;2023-07-13T01:14:02;100434.20;;;15.34
69435;BMP180;56625;54.322;18.582;2023-07-13T01:16:32;100436.60;;;15.40
69435;BMP180;56625;54.322;18.582;2023-07-13T01:19:00;100440.00;;;15.40
69435;BMP180;56625;54.322;18.582;2023-07-13T01:21:32;100433.20;;;15.30
69435;BMP180;56625;54.322;18.582;2023-07-13T01:23:59;100435.60;;;15.30
69435;BMP180;56625;54.322;18.582;2023-07-13T01:26:26;100435.20;;;15.30
69435;BMP180;56625;54.322;18.582;2023-07-13T01:28:53;100430.80;;;15.30
69435;BMP180;56625;54.322;18.582;2023-07-13T01:31:19;100431.40;;;15.28
69435;BMP180;56625;54.322;18.582;2023-07-13T01:33:46;100427.40;;;15.20
69435;BMP180;56625;54.322;18.582;2023-07-13T01:36:12;100432.40;;;15.20
69435;BMP180;56625;54.322;18.582;2023-07-13T01:38:40;100435.20;;;15.20
69435;BMP180;56625;54.322;18.582;2023-07-13T01:41:11;100436.40;;;15.20
69435;BMP180;56625;54.322;18.582;2023-07-13T01:43:37;100434.60;;;15.20
69435;BMP180;56625;54.322;18.582;2023-07-13T01:46:04;100442.60;;;15.22
69435;BMP180;56625;54.322;18.582;2023-07-13T01:48:49;100442.00;;;15.28
69435;BMP180;56625;54.322;18.582;2023-07-13T01:51:17;100447.80;;;15.30
69435;BMP180;56625;54.322;18.582;2023-07-13T01:53:44;100449.20;;;15.30
69435;BMP180;56625;54.322;18.582;2023-07-13T01:56:11;100455.60;;;15.30
69435;BMP180;56625;54.322;18.582;2023-07-13T01:58:38;100456.60;;;15.30
69435;BMP180;56625;54.322;18.582;2023-07-13T02:01:04;100456.20;;;15.20
69435;BMP180;56625;54.322;18.582;2023-07-13T02:03:31;100462.20;;;15.20
69435;BMP180;56625;54.322;18.582;2023-07-13T02:05:58;100465.80;;;15.10
69435;BMP180;56625;54.322;18.582;2023-07-13T02:08:24;100463.40;;;15.10
69435;BMP180;56625;54.322;18.582;2023-07-13T02:10:51;100463.60;;;15.18
69435;BMP180;56625;54.322;18.582;2023-07-13T02:13:17;100455.00;;;15.10
69435;BMP180;56625;54.322;18.582;2023-07-13T02:15:44;100461.80;;;15.12
69435;BMP180;56625;54.322;18.582;2023-07-13T02:18:11;100465.60;;;15.20
69435;BMP180;56625;54.322;18.582;2023-07-13T02:20:39;100464.80;;;15.20
69435;BMP180;56625;54.322;18.582;2023-07-13T02:23:05;100464.00;;;15.20
69435;BMP180;56625;54.322;18.582;2023-07-13T02:25:36;100458.40;;;15.26
69435;BMP180;56625;54.322;18.582;2023-07-13T02:28:02;100463.20;;;15.20
69435;BMP180;56625;54.322;18.582;2023-07-13T02:30:30;100456.40;;;15.22
69435;BMP180;56625;54.322;18.582;2023-07-13T02:32:57;100453.00;;;15.22
69435;BMP180;56625;54.322;18.582;2023-07-13T02:35:24;100453.40;;;15.24
69435;BMP180;56625;54.322;18.582;2023-07-13T02:37:50;100446.80;;;15.30
69435;BMP180;56625;54.322;18.582;2023-07-13T02:40:17;100453.60;;;15.30
69435;BMP180;56625;54.322;18.582;2023-07-13T02:42:44;100450.00;;;15.30
69435;BMP180;56625;54.322;18.582;2023-07-13T02:45:10;100452.20;;;15.32
69435;BMP180;56625;54.322;18.582;2023-07-13T02:47:41;100454.20;;;15.40
69435;BMP180;56625;54.322;18.582;2023-07-13T02:50:08;100449.00;;;15.40
69435;BMP180;56625;54.322;18.582;2023-07-13T02:52:35;100450.20;;;15.32
69435;BMP180;56625;54.322;18.582;2023-07-13T02:55:02;100451.60;;;15.30
69435;BMP180;56625;54.322;18.582;2023-07-13T02:57:29;100456.40;;;15.28
69435;BMP180;56625;54.322;18.582;2023-07-13T02:59:56;100449.80;;;15.28
69435;BMP180;56625;54.322;18.582;2023-07-13T03:02:25;100450.60;;;15.30
69435;BMP180;56625;54.322;18.582;2023-07-13T03:04:55;100447.60;;;15.34
69435;BMP180;56625;54.322;18.582;2023-07-13T03:07:21;100445.80;;;15.40
69435;BMP180;56625;54.322;18.582;2023-07-13T03:09:48;100439.00;;;15.40
69435;BMP180;56625;54.322;18.582;2023-07-13T03:12:15;100440.40;;;15.50
69435;BMP180;56625;54.322;18.582;2023-07-13T03:14:41;100435.00;;;15.60
69435;BMP180;56625;54.322;18.582;2023-07-13T03:17:08;100429.40;;;15.70
69435;BMP180;56625;54.322;18.582;2023-07-13T03:19:35;100430.80;;;15.76
69435;BMP180;56625;54.322;18.582;2023-07-13T03:22:01;100431.80;;;15.80
69435;BMP180;56625;54.322;18.582;2023-07-13T03:24:28;100434.80;;;15.90
69435;BMP180;56625;54.322;18.582;2023-07-13T03:27:03;100439.40;;;15.90
69435;BMP180;56625;54.322;18.582;2023-07-13T03:29:30;100438.60;;;16.00
69435;BMP180;56625;54.322;18.582;2023-07-13T03:31:57;100446.80;;;16.00
69435;BMP180;56625;54.322;18.582;2023-07-13T03:34:23;100441.40;;;16.10
69435;BMP180;56625;54.322;18.582;2023-07-13T03:36:50;100431.20;;;16.10
69435;BMP180;56625;54.322;18.582;2023-07-13T03:39:17;100435.00;;;16.20
69435;BMP180;56625;54.322;18.582;2023-07-13T03:41:43;100431.60;;;16.20
69435;BMP180;56625;54.322;18.582;2023-07-13T03:44:10;100431.00;;;16.30
69435;BMP180;56625;54.322;18.582;2023-07-13T03:46:36;100428.20;;;16.48
69435;BMP180;56625;54.322;18.582;2023-07-13T03:49:05;100426.00;;;16.68
69435;BMP180;56625;54.322;18.582;2023-07-13T03:51:31;100427.00;;;16.88
69435;BMP180;56625;54.322;18.582;2023-07-13T03:53:58;100426.20;;;17.28
69435;BMP180;56625;54.322;18.582;2023-07-13T03:56:24;100429.60;;;17.66
69435;BMP180;56625;54.322;18.582;2023-07-13T03:58:51;100426.40;;;17.84
69435;BMP180;56625;54.322;18.582;2023-07-13T04:01:20;100429.60;;;18.16
69435;BMP180;56625;54.322;18.582;2023-07-13T04:03:48;100428.40;;;18.50
69435;BMP180;56625;54.322;18.582;2023-07-13T04:06:28;100431.80;;;18.70
69435;BMP180;56625;54.322;18.582;2023-07-13T04:09:00;100423.60;;;19.00
69435;BMP180;56625;54.322;18.582;2023-07-13T04:11:30;100428.80;;;19.10
69435;BMP180;56625;54.322;18.582;2023-07-13T04:13:58;100432.00;;;19.30
69435;BMP180;56625;54.322;18.582;2023-07-13T04:16:25;100434.80;;;19.40
69435;BMP180;56625;54.322;18.582;2023-07-13T04:18:52;100436.40;;;19.50
69435;BMP180;56625;54.322;18.582;2023-07-13T04:21:30;100435.60;;;19.60
69435;BMP180;56625;54.322;18.582;2023-07-13T04:23:58;100440.60;;;19.66
69435;BMP180;56625;54.322;18.582;2023-07-13T04:26:25;100443.60;;;19.80
69435;BMP180;56625;54.322;18.582;2023-07-13T04:28:52;100442.60;;;19.80
69435;BMP180;56625;54.322;18.582;2023-07-13T04:31:19;100442.40;;;19.80
69435;BMP180;56625;54.322;18.582;2023-07-13T04:33:46;100444.20;;;19.80
69435;BMP180;56625;54.322;18.582;2023-07-13T04:36:16;100446.60;;;19.84
69435;BMP180;56625;54.322;18.582;2023-07-13T04:38:43;100454.40;;;19.90
69435;BMP180;56625;54.322;18.582;2023-07-13T04:41:10;100450.80;;;19.90
69435;BMP180;56625;54.322;18.582;2023-07-13T04:43:37;100446.40;;;19.90
69435;BMP180;56625;54.322;18.582;2023-07-13T04:46:12;100437.20;;;20.00
69435;BMP180;56625;54.322;18.582;2023-07-13T04:48:40;100444.40;;;20.10
69435;BMP180;56625;54.322;18.582;2023-07-13T04:51:07;100440.60;;;20.20
69435;BMP180;56625;54.322;18.582;2023-07-13T04:53:34;100442.80;;;20.10
69435;BMP180;56625;54.322;18.582;2023-07-13T04:56:02;100444.60;;;20.18
69435;BMP180;56625;54.322;18.582;2023-07-13T04:58:30;100449.60;;;20.30
69435;BMP180;56625;54.322;18.582;2023-07-13T05:01:05;100447.20;;;20.40
69435;BMP180;56625;54.322;18.582;2023-07-13T05:03:33;100450.00;;;20.36
69435;BMP180;56625;54.322;18.582;2023-07-13T05:06:04;100455.80;;;20.30
69435;BMP180;56625;54.322;18.582;2023-07-13T05:08:32;100451.00;;;20.40
69435;BMP180;56625;54.322;18.582;2023-07-13T05:11:00;100445.00;;;20.40
69435;BMP180;56625;54.322;18.582;2023-07-13T05:13:27;100445.80;;;20.40
69435;BMP180;56625;54.322;18.582;2023-07-13T05:16:03;100450.80;;;20.40
69435;BMP180;56625;54.322;18.582;2023-07-13T05:18:30;100455.80;;;20.40
69435;BMP180;56625;54.322;18.582;2023-07-13T05:21:04;100451.20;;;20.38
69435;BMP180;56625;54.322;18.582;2023-07-13T05:23:33;100461.60;;;20.40
69435;BMP180;56625;54.322;18.582;2023-07-13T05:26:01;100470.20;;;20.46
69435;BMP180;56625;54.322;18.582;2023-07-13T05:28:29;100475.00;;;20.60
69435;BMP180;56625;54.322;18.582;2023-07-13T05:30:57;100478.40;;;20.70
69435;BMP180;56625;54.322;18.582;2023-07-13T05:33:24;100477.60;;;20.70
69435;BMP180;56625;54.322;18.582;2023-07-13T05:35:52;100481.40;;;20.76
69435;BMP180;56625;54.322;18.582;2023-07-13T05:38:18;100483.80;;;20.78
69435;BMP180;56625;54.322;18.582;2023-07-13T05:40:46;100486.60;;;20.80
69435;BMP180;56625;54.322;18.582;2023-07-13T05:43:13;100485.40;;;20.80
69435;BMP180;56625;54.322;18.582;2023-07-13T05:45:40;100489.80;;;20.88
69435;BMP180;56625;54.322;18.582;2023-07-13T05:48:07;100496.40;;;21.00
69435;BMP180;56625;54.322;18.582;2023-07-13T05:50:34;100505.40;;;21.10
69435;BMP180;56625;54.322;18.582;2023-07-13T05:53:00;100498.60;;;21.16
69435;BMP180;56625;54.322;18.582;2023-07-13T05:55:27;100502.40;;;21.20
69435;BMP180;56625;54.322;18.582;2023-07-13T05:57:54;100498.00;;;21.30
69435;BMP180;56625;54.322;18.582;2023-07-13T06:00:21;100503.00;;;21.50
69435;BMP180;56625;54.322;18.582;2023-07-13T06:02:47;100501.20;;;21.50
69435;BMP180;56625;54.322;18.582;2023-07-13T06:05:14;100505.60;;;21.50
69435;BMP180;56625;54.322;18.582;2023-07-13T06:07:42;100508.40;;;21.50
69435;BMP180;56625;54.322;18.582;2023-07-13T06:10:09;100503.80;;;21.60
69435;BMP180;56625;54.322;18.582;2023-07-13T06:12:36;100507.40;;;21.66
69435;BMP180;56625;54.322;18.582;2023-07-13T06:15:03;100514.80;;;21.60
69435;BMP180;56625;54.322;18.582;2023-07-13T06:17:30;100514.60;;;21.70
69435;BMP180;56625;54.322;18.582;2023-07-13T06:19:57;100518.80;;;21.84
69435;BMP180;56625;54.322;18.582;2023-07-13T06:22:23;100522.40;;;21.80
69435;BMP180;56625;54.322;18.582;2023-07-13T06:24:50;100524.60;;;21.90
69435;BMP180;56625;54.322;18.582;2023-07-13T06:27:16;100528.80;;;21.90
69435;BMP180;56625;54.322;18.582;2023-07-13T06:29:43;100535.60;;;22.00
69435;BMP180;56625;54.322;18.582;2023-07-13T06:32:13;100537.60;;;22.00
69435;BMP180;56625;54.322;18.582;2023-07-13T06:34:40;100539.00;;;21.90
69435;BMP180;56625;54.322;18.582;2023-07-13T06:37:09;100537.20;;;21.92
69435;BMP180;56625;54.322;18.582;2023-07-13T06:39:36;100537.40;;;21.92
69435;BMP180;56625;54.322;18.582;2023-07-13T06:42:03;100538.20;;;22.00
69435;BMP180;56625;54.322;18.582;2023-07-13T06:44:32;100536.20;;;21.96
69435;BMP180;56625;54.322;18.582;2023-07-13T06:46:58;100541.20;;;21.90
69435;BMP180;56625;54.322;18.582;2023-07-13T06:49:25;100538.00;;;21.90
69435;BMP180;56625;54.322;18.582;2023-07-13T06:51:52;100531.20;;;21.80
69435;BMP180;56625;54.322;18.582;2023-07-13T06:54:18;100534.60;;;21.80
69435;BMP180;56625;54.322;18.582;2023-07-13T06:56:45;100538.40;;;21.70
69435;BMP180;56625;54.322;18.582;2023-07-13T06:59:12;100535.20;;;21.80
69435;BMP180;56625;54.322;18.582;2023-07-13T07:01:38;100546.40;;;21.96
69435;BMP180;56625;54.322;18.582;2023-07-13T07:04:08;100545.60;;;22.00
69435;BMP180;56625;54.322;18.582;2023-07-13T07:06:35;100543.60;;;22.10
69435;BMP180;56625;54.322;18.582;2023-07-13T07:09:01;100551.00;;;22.20
69435;BMP180;56625;54.322;18.582;2023-07-13T07:11:28;100548.60;;;22.10
69435;BMP180;56625;54.322;18.582;2023-07-13T07:13:55;100548.20;;;22.10
69435;BMP180;56625;54.322;18.582;2023-07-13T07:16:24;100546.80;;;22.14
69435;BMP180;56625;54.322;18.582;2023-07-13T07:18:51;100543.60;;;22.30
69435;BMP180;56625;54.322;18.582;2023-07-13T07:21:17;100544.80;;;22.50
69435;BMP180;56625;54.322;18.582;2023-07-13T07:23:45;100547.80;;;22.64
69435;BMP180;56625;54.322;18.582;2023-07-13T07:26:12;100545.00;;;22.80
69435;BMP180;56625;54.322;18.582;2023-07-13T07:28:39;100546.80;;;22.74
69435;BMP180;56625;54.322;18.582;2023-07-13T07:31:13;100540.00;;;22.70
69435;BMP180;56625;54.322;18.582;2023-07-13T07:33:42;100543.40;;;22.60
69435;BMP180;56625;54.322;18.582;2023-07-13T07:36:12;100543.80;;;22.70
69435;BMP180;56625;54.322;18.582;2023-07-13T07:38:44;100541.60;;;22.80
69435;BMP180;56625;54.322;18.582;2023-07-13T07:41:12;100542.00;;;22.90
69435;BMP180;56625;54.322;18.582;2023-07-13T07:43:42;100543.00;;;23.00
69435;BMP180;56625;54.322;18.582;2023-07-13T07:46:09;100547.80;;;22.90
69435;BMP180;56625;54.322;18.582;2023-07-13T07:48:36;100552.00;;;22.70
69435;BMP180;56625;54.322;18.582;2023-07-13T07:51:03;100557.20;;;22.60
69435;BMP180;56625;54.322;18.582;2023-07-13T07:53:30;100558.80;;;22.60
69435;BMP180;56625;54.322;18.582;2023-07-13T07:56:00;100564.60;;;22.84
69435;BMP180;56625;54.322;18.582;2023-07-13T07:58:47;100563.40;;;23.02
69435;BMP180;56625;54.322;18.582;2023-07-13T08:01:16;100563.20;;;23.18
69435;BMP180;56625;54.322;18.582;2023-07-13T08:03:46;100567.00;;;23.10
69435;BMP180;56625;54.322;18.582;2023-07-13T08:06:16;100574.00;;;22.90
69435;BMP180;56625;54.322;18.582;2023-07-13T08:09:03;100574.60;;;22.70
69435;BMP180;56625;54.322;18.582;2023-07-13T08:11:33;100577.60;;;22.86
69435;BMP180;56625;54.322;18.582;2023-07-13T08:14:02;100572.60;;;23.20
69435;BMP180;56625;54.322;18.582;2023-07-13T08:16:31;100577.20;;;23.40
69435;BMP180;56625;54.322;18.582;2023-07-13T08:18:59;100578.60;;;23.30
69435;BMP180;56625;54.322;18.582;2023-07-13T08:21:26;100578.40;;;23.10
69435;BMP180;56625;54.322;18.582;2023-07-13T08:23:53;100576.60;;;23.10
69435;BMP180;56625;54.322;18.582;2023-07-13T08:26:19;100576.00;;;23.30
69435;BMP180;56625;54.322;18.582;2023-07-13T08:28:46;100574.40;;;23.42
69435;BMP180;56625;54.322;18.582;2023-07-13T08:31:12;100570.60;;;23.56
69435;BMP180;56625;54.322;18.582;2023-07-13T08:33:40;100568.00;;;23.80
69435;BMP180;56625;54.322;18.582;2023-07-13T08:36:07;100568.60;;;23.70
69435;BMP180;56625;54.322;18.582;2023-07-13T08:38:34;100574.60;;;23.80
69435;BMP180;56625;54.322;18.582;2023-07-13T08:41:12;100575.40;;;23.60
69435;BMP180;56625;54.322;18.582;2023-07-13T08:43:42;100589.00;;;23.44
69435;BMP180;56625;54.322;18.582;2023-07-13T08:46:25;100591.60;;;23.32
69435;BMP180;56625;54.322;18.582;2023-07-13T08:49:02;100595.20;;;23.30
69435;BMP180;56625;54.322;18.582;2023-07-13T08:51:49;100595.60;;;23.20
69435;BMP180;56625;54.322;18.582;2023-07-13T08:54:28;100593.60;;;23.20
69435;BMP180;56625;54.322;18.582;2023-07-13T08:57:00;100583.00;;;23.50
69435;BMP180;56625;54.322;18.582;2023-07-13T08:59:32;100580.40;;;23.50
69435;BMP180;56625;54.322;18.582;2023-07-13T09:02:25;100583.60;;;23.40
69435;BMP180;56625;54.322;18.582;2023-07-13T09:05:04;100579.40;;;23.20
69435;BMP180;56625;54.322;18.582;2023-07-13T09:08:19;100577.60;;;23.24
69435;BMP180;56625;54.322;18.582;2023-07-13T09:11:00;100571.00;;;23.58
69435;BMP180;56625;54.322;18.582;2023-07-13T09:16:39;100562.40;;;24.20
69435;BMP180;56625;54.322;18.582;2023-07-13T09:19:20;100558.80;;;24.42
69435;BMP180;56625;54.322;18.582;2023-07-13T09:21:52;100554.60;;;24.60
69435;BMP180;56625;54.322;18.582;2023-07-13T09:27:35;100547.80;;;24.50
69435;BMP180;56625;54.322;18.582;2023-07-13T09:32:50;100555.20;;;24.40
69435;BMP180;56625;54.322;18.582;2023-07-13T09:35:25;100545.20;;;24.30
69435;BMP180;56625;54.322;18.582;2023-07-13T09:38:15;100550.40;;;24.30
69435;BMP180;56625;54.322;18.582;2023-07-13T09:41:11;100547.00;;;24.30
69435;BMP180;56625;54.322;18.582;2023-07-13T09:44:10;100543.60;;;24.30
69435;BMP180;56625;54.322;18.582;2023-07-13T09:46:44;100545.80;;;24.32
69435;BMP180;56625;54.322;18.582;2023-07-13T09:49:12;100545.60;;;24.70
69435;BMP180;56625;54.322;18.582;2023-07-13T09:51:42;100544.80;;;24.90
69435;BMP180;56625;54.322;18.582;2023-07-13T09:54:24;100547.40;;;24.92
69435;BMP180;56625;54.322;18.582;2023-07-13T09:56:59;100543.60;;;24.96
69435;BMP180;56625;54.322;18.582;2023-07-13T09:59:35;100548.20;;;25.10
69435;BMP180;56625;54.322;18.582;2023-07-13T10:02:23;100552.40;;;25.00
69435;BMP180;56625;54.322;18.582;2023-07-13T10:04:57;100552.80;;;24.90
69435;BMP180;56625;54.322;18.582;2023-07-13T10:07:27;100549.40;;;24.90
69435;BMP180;56625;54.322;18.582;2023-07-13T10:09:59;100552.00;;;24.90
69435;BMP180;56625;54.322;18.582;2023-07-13T10:12:30;100552.20;;;24.80
69435;BMP180;56625;54.322;18.582;2023-07-13T10:15:02;100550.00;;;24.64
69435;BMP180;56625;54.322;18.582;2023-07-13T10:17:52;100561.80;;;24.66
69435;BMP180;56625;54.322;18.582;2023-07-13T10:20:21;100562.00;;;24.72
69435;BMP180;56625;54.322;18.582;2023-07-13T10:23:00;100563.40;;;24.80
69435;BMP180;56625;54.322;18.582;2023-07-13T10:25:39;100558.20;;;24.98
69435;BMP180;56625;54.322;18.582;2023-07-13T10:28:31;100564.60;;;25.34
69435;BMP180;56625;54.322;18.582;2023-07-13T10:31:04;100587.40;;;25.50
69435;BMP180;56625;54.322;18.582;2023-07-13T10:33:32;100597.60;;;25.34
69435;BMP180;56625;54.322;18.582;2023-07-13T10:36:32;100615.00;;;24.88
69435;BMP180;56625;54.322;18.582;2023-07-13T10:39:05;100626.80;;;24.20
69435;BMP180;56625;54.322;18.582;2023-07-13T10:41:40;100628.00;;;23.80
69435;BMP180;56625;54.322;18.582;2023-07-13T10:44:26;100636.80;;;23.50
69435;BMP180;56625;54.322;18.582;2023-07-13T10:47:03;100638.80;;;23.40
69435;BMP180;56625;54.322;18.582;2023-07-13T10:49:35;100640.80;;;23.42
69435;BMP180;56625;54.322;18.582;2023-07-13T10:52:03;100634.20;;;23.50
69435;BMP180;56625;54.322;18.582;2023-07-13T10:54:36;100632.40;;;23.40
69435;BMP180;56625;54.322;18.582;2023-07-13T10:57:19;100626.40;;;23.44
69435;BMP180;56625;54.322;18.582;2023-07-13T11:02:30;100624.60;;;24.10
69435;BMP180;56625;54.322;18.582;2023-07-13T11:05:25;100621.80;;;24.10
69435;BMP180;56625;54.322;18.582;2023-07-13T11:08:35;100614.60;;;24.40
69435;BMP180;56625;54.322;18.582;2023-07-13T11:11:36;100620.80;;;24.58
69435;BMP180;56625;54.322;18.582;2023-07-13T11:14:26;100622.40;;;24.56
69435;BMP180;56625;54.322;18.582;2023-07-13T11:16:52;100621.80;;;24.60
69435;BMP180;56625;54.322;18.582;2023-07-13T11:22:11;100621.80;;;25.10
69435;BMP180;56625;54.322;18.582;2023-07-13T11:25:21;100621.80;;;25.10
69435;BMP180;56625;54.322;18.582;2023-07-13T11:28:23;100622.20;;;25.00
69435;BMP180;56625;54.322;18.582;2023-07-13T11:36:17;100629.80;;;24.54
69435;BMP180;56625;54.322;18.582;2023-07-13T11:41:34;100632.00;;;24.40
69435;BMP180;56625;54.322;18.582;2023-07-13T11:44:18;100636.60;;;24.60
69435;BMP180;56625;54.322;18.582;2023-07-13T11:46:52;100637.80;;;24.58
69435;BMP180;56625;54.322;18.582;2023-07-13T11:49:25;100637.00;;;24.32
69435;BMP180;56625;54.322;18.582;2023-07-13T11:51:53;100637.40;;;24.20
69435;BMP180;56625;54.322;18.582;2023-07-13T11:54:32;100643.60;;;24.20
69435;BMP180;56625;54.322;18.582;2023-07-13T11:57:10;100647.80;;;24.20
69435;BMP180;56625;54.322;18.582;2023-07-13T11:59:44;100649.20;;;24.20
69435;BMP180;56625;54.322;18.582;2023-07-13T12:02:29;100647.80;;;24.32
69435;BMP180;56625;54.322;18.582;2023-07-13T12:04:59;100646.00;;;24.66
69435;BMP180;56625;54.322;18.582;2023-07-13T12:07:31;100643.60;;;24.98
69435;BMP180;56625;54.322;18.582;2023-07-13T12:10:28;100639.60;;;25.00
69435;BMP180;56625;54.322;18.582;2023-07-13T12:13:01;100642.00;;;25.04
69435;BMP180;56625;54.322;18.582;2023-07-13T12:15:48;100645.80;;;25.24
69435;BMP180;56625;54.322;18.582;2023-07-13T12:18:19;100643.60;;;25.50
69435;BMP180;56625;54.322;18.582;2023-07-13T12:20:48;100644.20;;;25.60
69435;BMP180;56625;54.322;18.582;2023-07-13T12:23:31;100642.80;;;25.50
69435;BMP180;56625;54.322;18.582;2023-07-13T12:26:04;100648.00;;;25.60
69435;BMP180;56625;54.322;18.582;2023-07-13T12:34:00;100645.40;;;24.92
69435;BMP180;56625;54.322;18.582;2023-07-13T12:36:31;100650.60;;;24.56
69435;BMP180;56625;54.322;18.582;2023-07-13T12:39:36;100652.60;;;24.24
69435;BMP180;56625;54.322;18.582;2023-07-13T12:45:17;100650.80;;;23.80
69435;BMP180;56625;54.322;18.582;2023-07-13T12:47:47;100648.40;;;23.70
69435;BMP180;56625;54.322;18.582;2023-07-13T12:50:19;100650.60;;;23.60
69435;BMP180;56625;54.322;18.582;2023-07-13T12:52:56;100646.40;;;23.48
69435;BMP180;56625;54.322;18.582;2023-07-13T12:55:27;100654.20;;;23.30
69435;BMP180;56625;54.322;18.582;2023-07-13T12:57:57;100661.60;;;23.10
69435;BMP180;56625;54.322;18.582;2023-07-13T13:00:32;100659.80;;;22.90
69435;BMP180;56625;54.322;18.582;2023-07-13T13:03:30;100659.00;;;22.80
69435;BMP180;56625;54.322;18.582;2023-07-13T13:08:54;100655.80;;;22.90
69435;BMP180;56625;54.322;18.582;2023-07-13T13:11:23;100643.20;;;23.00
69435;BMP180;56625;54.322;18.582;2023-07-13T13:13:50;100646.60;;;23.10
69435;BMP180;56625;54.322;18.582;2023-07-13T13:18:55;100635.80;;;23.00
69435;BMP180;56625;54.322;18.582;2023-07-13T13:21:25;100634.60;;;23.10
69435;BMP180;56625;54.322;18.582;2023-07-13T13:23:52;100633.80;;;23.30
69435;BMP180;56625;54.322;18.582;2023-07-13T13:26:23;100623.80;;;23.50
69435;BMP180;56625;54.322;18.582;2023-07-13T13:28:50;100626.40;;;23.46
69435;BMP180;56625;54.322;18.582;2023-07-13T13:31:17;100632.60;;;23.40
69435;BMP180;56625;54.322;18.582;2023-07-13T13:33:45;100632.20;;;23.30
69435;BMP180;56625;54.322;18.582;2023-07-13T13:36:22;100642.60;;;23.40
69435;BMP180;56625;54.322;18.582;2023-07-13T13:38:50;100642.80;;;23.30
69435;BMP180;56625;54.322;18.582;2023-07-13T13:41:17;100650.60;;;23.30
69435;BMP180;56625;54.322;18.582;2023-07-13T13:43:44;100648.60;;;23.30
69435;BMP180;56625;54.322;18.582;2023-07-13T13:46:19;100647.00;;;23.30
69435;BMP180;56625;54.322;18.582;2023-07-13T13:48:48;100633.60;;;23.40
69435;BMP180;56625;54.322;18.582;2023-07-13T13:51:24;100637.60;;;23.40
69435;BMP180;56625;54.322;18.582;2023-07-13T13:53:51;100638.00;;;23.50
69435;BMP180;56625;54.322;18.582;2023-07-13T13:56:20;100639.00;;;23.50
69435;BMP180;56625;54.322;18.582;2023-07-13T13:58:46;100641.80;;;23.68
69435;BMP180;56625;54.322;18.582;2023-07-13T14:01:18;100640.80;;;23.80
69435;BMP180;56625;54.322;18.582;2023-07-13T14:03:46;100642.40;;;23.82
69435;BMP180;56625;54.322;18.582;2023-07-13T14:06:16;100647.20;;;23.76
69435;BMP180;56625;54.322;18.582;2023-07-13T14:08:43;100649.40;;;23.52
69435;BMP180;56625;54.322;18.582;2023-07-13T14:11:20;100655.80;;;23.36
69435;BMP180;56625;54.322;18.582;2023-07-13T14:13:59;100655.00;;;23.20
69435;BMP180;56625;54.322;18.582;2023-07-13T14:16:30;100654.00;;;23.10
69435;BMP180;56625;54.322;18.582;2023-07-13T14:18:58;100654.60;;;23.00
69435;BMP180;56625;54.322;18.582;2023-07-13T14:21:28;100655.60;;;23.00
69435;BMP180;56625;54.322;18.582;2023-07-13T14:23:55;100653.60;;;23.00
69435;BMP180;56625;54.322;18.582;2023-07-13T14:26:25;100650.00;;;22.94
69435;BMP180;56625;54.322;18.582;2023-07-13T14:28:55;100646.80;;;22.80
69435;BMP180;56625;54.322;18.582;2023-07-13T14:31:26;100643.60;;;22.60
69435;BMP180;56625;54.322;18.582;2023-07-13T14:33:57;100650.40;;;22.60
69435;BMP180;56625;54.322;18.582;2023-07-13T14:36:33;100647.00;;;22.50
69435;BMP180;56625;54.322;18.582;2023-07-13T14:39:13;100648.80;;;22.60
69435;BMP180;56625;54.322;18.582;2023-07-13T14:41:41;100645.40;;;22.80
69435;BMP180;56625;54.322;18.582;2023-07-13T14:44:12;100649.60;;;22.90